createdAt,value
2019-03-28T00:02:24.958Z,13.43
2019-03-28T00:04:59.686Z,17.20
2019-03-28T00:07:32.980Z,15.83
2019-03-28T00:10:08.035Z,13.83
2019-03-28T00:12:41.195Z,13.00
2019-03-28T00:15:18.383Z,10.55
2019-03-28T00:17:51.332Z,13.87
2019-03-28T00:20:25.521Z,10.50
2019-03-28T00:23:21.455Z,12.20
2019-03-28T00:25:53.484Z,12.23
2019-03-28T00:28:26.508Z,13.25
2019-03-28T00:30:59.775Z,16.45
2019-03-28T00:33:33.884Z,13.88
2019-03-28T00:36:10.403Z,12.13
2019-03-28T00:38:42.981Z,15.33
2019-03-28T00:41:16.627Z,12.20
2019-03-28T00:43:49.843Z,13.50
2019-03-28T00:46:21.884Z,13.65
2019-03-28T00:48:55.552Z,16.40
2019-03-28T00:51:29.013Z,14.23
2019-03-28T00:54:02.373Z,14.80
2019-03-28T00:56:46.554Z,16.20
2019-03-28T00:59:10.371Z,13.35
2019-03-28T01:01:43.180Z,15.38
2019-03-28T01:04:16.747Z,15.35
2019-03-28T01:07:07.999Z,16.23
2019-03-28T01:09:41.551Z,12.53
2019-03-28T01:12:14.471Z,16.32
2019-03-28T01:14:48.013Z,16.85
2019-03-28T01:17:22.335Z,16.40
2019-03-28T01:19:56.802Z,14.30
2019-03-28T01:22:29.328Z,17.27
2019-03-28T01:25:02.713Z,16.07
2019-03-28T01:27:34.930Z,20.65
2019-03-28T01:30:07.393Z,16.32
2019-03-28T01:32:41.287Z,14.33
2019-03-28T01:35:13.831Z,16.75
2019-03-28T01:37:45.695Z,15.03
2019-03-28T01:40:19.427Z,12.95
2019-03-28T01:42:52.437Z,11.65
2019-03-28T01:45:35.692Z,15.15
2019-03-28T01:48:08.281Z,11.88
2019-03-28T01:50:42.019Z,15.40
2019-03-28T01:53:14.082Z,12.98
2019-03-28T01:55:46.490Z,14.25
2019-03-28T01:58:22.060Z,11.33
2019-03-28T02:00:55.362Z,10.47
2019-03-28T02:03:28.731Z,12.82
2019-03-28T02:06:02.831Z,20.97
2019-03-28T02:08:36.648Z,13.55
2019-03-28T02:11:18.697Z,13.15
2019-03-28T02:13:52.040Z,12.33
2019-03-28T02:16:42.643Z,12.58
2019-03-28T02:19:16.414Z,12.05
2019-03-28T02:21:48.344Z,12.50
2019-03-28T02:24:20.985Z,11.18
2019-03-28T02:27:23.297Z,14.95
2019-03-28T02:29:46.392Z,12.73
2019-03-28T02:32:19.551Z,12.07
2019-03-28T02:34:53.791Z,12.35
2019-03-28T02:37:25.829Z,14.33
2019-03-28T02:39:58.355Z,13.25
2019-03-28T02:42:30.287Z,14.20
2019-03-28T02:45:03.833Z,11.55
2019-03-28T02:47:36.554Z,15.13
2019-03-28T02:50:09.970Z,13.75
2019-03-28T02:52:41.981Z,29.40
2019-03-28T02:55:14.581Z,14.03
2019-03-28T02:57:47.649Z,13.45
2019-03-28T03:00:20.771Z,12.85
2019-03-28T03:02:53.324Z,15.70
2019-03-28T03:05:27.872Z,12.78
2019-03-28T03:07:59.900Z,11.63
2019-03-28T03:10:32.406Z,13.30
2019-03-28T03:13:04.360Z,12.23
2019-03-28T03:15:38.562Z,67.27
2019-03-28T03:18:11.082Z,14.93
2019-03-28T03:20:45.384Z,16.05
2019-03-28T03:23:19.931Z,18.45
2019-03-28T03:25:53.930Z,15.70
2019-03-28T03:28:26.397Z,18.70
2019-03-28T03:30:58.882Z,20.70
2019-03-28T03:33:32.593Z,16.57
2019-03-28T03:36:05.667Z,20.50
2019-03-28T03:38:37.766Z,17.62
2019-03-28T03:41:11.045Z,19.60
2019-03-28T03:43:45.629Z,19.57
2019-03-28T03:46:18.841Z,19.02
2019-03-28T03:48:52.824Z,18.73
2019-03-28T03:51:24.945Z,17.57
2019-03-28T03:53:57.976Z,20.72
2019-03-28T03:56:31.400Z,16.97
2019-03-28T03:59:03.949Z,16.05
2019-03-28T04:01:36.924Z,18.62
2019-03-28T04:04:11.301Z,15.28
2019-03-28T04:06:44.289Z,16.75
2019-03-28T04:09:17.527Z,17.45
2019-03-28T04:11:51.776Z,17.45
2019-03-28T04:14:25.579Z,17.98
2019-03-28T04:17:00.845Z,16.23
2019-03-28T04:19:33.317Z,15.48
2019-03-28T04:22:06.818Z,24.40
2019-03-28T04:24:39.335Z,19.42
2019-03-28T04:27:11.832Z,20.90
2019-03-28T04:29:45.674Z,24.63
2019-03-28T04:32:20.577Z,16.80
2019-03-28T04:34:55.048Z,21.50
2019-03-28T04:37:28.973Z,18.10
2019-03-28T04:40:11.727Z,20.10
2019-03-28T04:42:46.000Z,17.50
2019-03-28T04:45:19.541Z,21.62
2019-03-28T04:47:51.638Z,27.55
2019-03-28T04:50:24.195Z,22.50
2019-03-28T04:52:57.348Z,23.20
2019-03-28T04:55:29.888Z,26.85
2019-03-28T04:58:02.967Z,15.30
2019-03-28T05:00:36.100Z,18.10
2019-03-28T05:03:08.569Z,25.77
2019-03-28T05:05:50.729Z,36.17
2019-03-28T05:08:23.451Z,18.12
2019-03-28T05:10:57.275Z,19.42
2019-03-28T05:13:30.984Z,18.37
2019-03-28T05:16:04.261Z,22.03
2019-03-28T05:18:37.109Z,18.33
2019-03-28T05:21:09.647Z,18.70
2019-03-28T05:23:44.643Z,24.40
2019-03-28T05:26:17.645Z,21.00
2019-03-28T05:28:57.558Z,33.30
2019-03-28T05:31:27.519Z,24.70
2019-03-28T05:34:02.277Z,26.30
2019-03-28T05:36:35.734Z,19.20
2019-03-28T05:39:09.828Z,30.60
2019-03-28T05:41:42.700Z,27.57
2019-03-28T05:44:16.861Z,34.77
2019-03-28T05:46:51.116Z,23.73
2019-03-28T05:49:23.343Z,18.60
2019-03-28T05:51:56.343Z,16.13
2019-03-28T05:54:29.684Z,18.70
2019-03-28T05:57:02.212Z,28.93
2019-03-28T05:59:34.762Z,17.23
2019-03-28T06:02:08.898Z,19.27
2019-03-28T06:04:46.163Z,31.40
2019-03-28T06:07:19.528Z,20.07
2019-03-28T06:09:53.364Z,24.60
2019-03-28T06:12:27.927Z,24.67
2019-03-28T06:15:00.580Z,25.43
2019-03-28T06:17:34.942Z,41.10
2019-03-28T06:20:09.432Z,28.70
2019-03-28T06:22:44.108Z,36.90
2019-03-28T06:25:17.432Z,22.83
2019-03-28T06:27:49.481Z,31.30
2019-03-28T06:30:23.171Z,201.97
2019-03-28T06:32:58.642Z,33.17
2019-03-28T06:35:30.951Z,34.33
2019-03-28T06:38:04.020Z,30.03
2019-03-28T06:40:37.592Z,23.90
2019-03-28T06:43:10.665Z,28.63
2019-03-28T06:45:54.024Z,65.67
2019-03-28T06:48:37.896Z,28.67
2019-03-28T06:51:12.065Z,78.57
2019-03-28T06:53:46.612Z,46.70
2019-03-28T06:56:18.654Z,46.70
2019-03-28T06:58:53.156Z,32.10
2019-03-28T07:01:25.608Z,33.20
2019-03-28T07:03:58.623Z,38.53
2019-03-28T07:06:32.419Z,21.23
2019-03-28T07:09:05.795Z,22.37
2019-03-28T07:11:40.284Z,25.87
2019-03-28T07:14:14.596Z,27.27
2019-03-28T07:16:48.680Z,21.80
2019-03-28T07:19:22.347Z,21.23
2019-03-28T07:21:56.914Z,15.80
2019-03-28T07:24:30.468Z,31.20
2019-03-28T07:27:05.172Z,22.67
2019-03-28T07:29:50.153Z,22.27
2019-03-28T07:32:14.388Z,18.93
2019-03-28T07:34:47.096Z,69.77
2019-03-28T07:37:20.198Z,23.93
2019-03-28T07:39:58.832Z,26.67
2019-03-28T07:42:33.445Z,47.70
2019-03-28T07:45:11.279Z,31.00
2019-03-28T07:47:45.523Z,33.30
2019-03-28T07:50:20.108Z,21.23
2019-03-28T07:52:54.796Z,19.20
2019-03-28T07:55:27.995Z,23.43
2019-03-28T07:58:02.425Z,33.93
2019-03-28T08:00:34.582Z,17.67
2019-03-28T08:03:10.416Z,17.77
2019-03-28T08:05:43.091Z,19.80
2019-03-28T08:08:16.584Z,17.83
2019-03-28T08:10:51.365Z,19.47
2019-03-28T08:13:23.652Z,19.57
2019-03-28T08:15:58.128Z,12.83
2019-03-28T08:18:40.932Z,17.23
2019-03-28T08:21:14.056Z,16.33
2019-03-28T08:23:48.141Z,17.30
2019-03-28T08:26:22.557Z,13.07
2019-03-28T08:28:56.001Z,17.47
2019-03-28T08:31:30.216Z,33.97
2019-03-28T08:34:05.231Z,38.23
2019-03-28T08:36:39.747Z,23.43
2019-03-28T08:39:14.588Z,24.13
2019-03-28T08:41:48.878Z,82.50
2019-03-28T08:44:22.807Z,63.30
2019-03-28T08:46:58.948Z,69.20
2019-03-28T08:49:32.733Z,57.33
2019-03-28T08:52:05.420Z,28.17
2019-03-28T08:54:38.621Z,26.17
2019-03-28T08:57:15.260Z,43.83
2019-03-28T08:59:49.396Z,47.27
2019-03-28T09:02:23.460Z,26.53
2019-03-28T09:04:57.512Z,15.43
2019-03-28T09:07:32.351Z,32.97
2019-03-28T09:10:06.876Z,25.73
2019-03-28T09:12:40.608Z,33.63
2019-03-28T09:15:12.673Z,63.83
2019-03-28T09:17:46.725Z,22.87
2019-03-28T09:20:21.032Z,30.00
2019-03-28T09:22:55.698Z,35.23
2019-03-28T09:25:29.582Z,77.03
2019-03-28T09:28:04.797Z,34.03
2019-03-28T09:30:48.568Z,31.73
2019-03-28T09:33:17.204Z,34.17
2019-03-28T09:35:51.626Z,40.67
2019-03-28T09:38:28.744Z,80.93
2019-03-28T09:41:01.824Z,72.70
2019-03-28T09:43:39.088Z,29.23
2019-03-28T09:46:11.672Z,56.37
2019-03-28T09:48:46.305Z,35.00
2019-03-28T09:51:18.791Z,25.67
2019-03-28T09:53:52.491Z,76.93
2019-03-28T09:56:26.560Z,30.83
2019-03-28T09:59:00.458Z,85.17
2019-03-28T10:01:36.132Z,39.93
2019-03-28T10:04:10.011Z,19.53
2019-03-28T10:06:42.546Z,13.27
2019-03-28T10:09:15.604Z,16.33
2019-03-28T10:11:49.256Z,12.10
2019-03-28T10:14:22.878Z,15.50
2019-03-28T10:16:57.561Z,12.07
2019-03-28T10:19:31.411Z,17.50
2019-03-28T10:22:05.504Z,21.13
2019-03-28T10:24:37.616Z,14.30
2019-03-28T10:27:11.888Z,21.77
2019-03-28T10:29:46.087Z,32.70
2019-03-28T10:32:19.317Z,11.43
2019-03-28T10:34:52.765Z,9.93
2019-03-28T10:37:26.375Z,25.40
2019-03-28T10:39:59.156Z,13.93
2019-03-28T10:42:33.094Z,14.30
2019-03-28T10:45:07.589Z,9.17
2019-03-28T10:47:41.226Z,34.13
2019-03-28T10:50:17.511Z,12.30
2019-03-28T10:52:51.716Z,12.27
2019-03-28T10:55:26.631Z,7.07
2019-03-28T10:58:01.040Z,54.37
2019-03-28T11:00:37.164Z,12.03
2019-03-28T11:03:10.337Z,13.33
2019-03-28T11:05:44.151Z,9.67
2019-03-28T11:08:17.477Z,11.73
2019-03-28T11:10:52.583Z,7.47
2019-03-28T11:13:28.390Z,11.30
2019-03-28T11:16:03.364Z,7.17
2019-03-28T11:18:37.143Z,10.43
2019-03-28T11:21:11.560Z,14.07
2019-03-28T11:23:45.467Z,9.43
2019-03-28T11:26:19.778Z,8.67
2019-03-28T11:28:53.584Z,11.70
2019-03-28T11:31:55.424Z,13.13
2019-03-28T11:34:31.572Z,7.07
2019-03-28T11:37:05.769Z,13.27
2019-03-28T11:39:39.820Z,10.70
2019-03-28T11:42:14.087Z,20.50
2019-03-28T11:44:49.964Z,16.43
2019-03-28T11:47:23.951Z,7.73
2019-03-28T11:49:59.145Z,11.57
2019-03-28T11:52:33.220Z,16.33
2019-03-28T11:55:11.902Z,16.07
2019-03-28T11:57:45.741Z,8.63
2019-03-28T12:00:19.255Z,6.33
2019-03-28T12:02:52.316Z,6.13
2019-03-28T12:05:26.163Z,8.10
2019-03-28T12:08:00.423Z,7.27
2019-03-28T12:10:34.374Z,9.70
2019-03-28T12:13:08.746Z,9.63
2019-03-28T12:15:42.964Z,8.70
2019-03-28T12:18:18.843Z,19.13
2019-03-28T12:20:52.869Z,11.43
2019-03-28T12:23:29.669Z,14.73
2019-03-28T12:26:04.479Z,12.80
2019-03-28T12:28:39.694Z,21.97
2019-03-28T12:31:12.856Z,15.77
2019-03-28T12:33:48.169Z,18.33
2019-03-28T12:36:22.424Z,7.83
2019-03-28T12:38:57.532Z,15.90
2019-03-28T12:41:31.475Z,11.60
2019-03-28T12:44:08.146Z,16.63
2019-03-28T12:46:41.027Z,9.67
2019-03-28T12:49:15.423Z,11.73
2019-03-28T12:51:53.912Z,14.03
2019-03-28T12:54:27.396Z,8.13
2019-03-28T12:56:59.500Z,10.00
2019-03-28T12:59:33.779Z,17.47
2019-03-28T13:02:09.225Z,12.60
2019-03-28T13:04:42.793Z,9.23
2019-03-28T13:07:17.415Z,8.00
2019-03-28T13:09:50.234Z,9.53
2019-03-28T13:12:23.467Z,14.13
2019-03-28T13:14:57.257Z,14.33
2019-03-28T13:17:32.362Z,11.20
2019-03-28T13:20:07.814Z,9.63
2019-03-28T13:22:41.531Z,6.60
2019-03-28T13:25:14.841Z,8.73
2019-03-28T13:27:48.888Z,7.97
2019-03-28T13:30:23.269Z,8.20
2019-03-28T13:32:58.796Z,11.93
2019-03-28T13:38:15.117Z,16.60
2019-03-28T13:41:00.391Z,15.60
2019-03-28T13:43:35.514Z,33.23
2019-03-28T13:46:13.259Z,26.33
2019-03-28T13:48:51.717Z,17.00
2019-03-28T13:51:26.884Z,17.80
2019-03-28T13:54:00.541Z,11.37
2019-03-28T13:56:34.561Z,10.03
2019-03-28T13:59:09.072Z,18.07
2019-03-28T14:01:42.219Z,13.33
2019-03-28T14:04:15.783Z,9.23
2019-03-28T14:06:49.574Z,11.87
2019-03-28T14:09:23.584Z,12.47
2019-03-28T14:11:57.377Z,7.07
2019-03-28T14:14:31.012Z,29.77
2019-03-28T14:17:06.848Z,18.83
2019-03-28T14:19:41.991Z,11.93
2019-03-28T14:22:18.459Z,15.67
2019-03-28T14:24:52.443Z,8.63
2019-03-28T14:27:26.956Z,9.00
2019-03-28T14:30:01.861Z,12.23
2019-03-28T14:32:52.427Z,7.20
2019-03-28T14:35:16.651Z,12.00
2019-03-28T14:37:50.959Z,8.80
2019-03-28T14:40:24.987Z,20.40
2019-03-28T14:43:00.838Z,16.03
2019-03-28T14:45:36.017Z,9.47
2019-03-28T14:48:11.442Z,8.53
2019-03-28T14:50:46.181Z,8.77
2019-03-28T14:53:22.247Z,15.67
2019-03-28T14:55:55.441Z,10.63
2019-03-28T14:58:32.517Z,14.37
2019-03-28T15:01:06.102Z,12.27
2019-03-28T15:03:42.566Z,8.43
2019-03-28T15:06:19.466Z,10.47
2019-03-28T15:08:54.149Z,14.67
2019-03-28T15:11:27.966Z,10.13
2019-03-28T15:14:02.917Z,16.07
2019-03-28T15:16:37.649Z,14.93
2019-03-28T15:19:12.195Z,21.33
2019-03-28T15:21:46.656Z,27.67
2019-03-28T15:24:20.022Z,21.10
2019-03-28T15:26:54.370Z,26.30
2019-03-28T15:29:29.925Z,46.60
2019-03-28T15:32:03.610Z,22.00
2019-03-28T15:34:39.243Z,37.90
2019-03-28T15:37:13.664Z,27.00
2019-03-28T15:39:48.399Z,12.87
2019-03-28T15:42:23.559Z,27.80
2019-03-28T15:44:57.155Z,8.63
2019-03-28T15:47:31.792Z,25.03
2019-03-28T15:50:06.138Z,11.50
2019-03-28T15:52:41.003Z,25.70
2019-03-28T15:55:15.778Z,19.77
2019-03-28T15:57:50.475Z,18.50
2019-03-28T16:00:25.084Z,17.57
2019-03-28T16:02:58.137Z,11.33
2019-03-28T16:05:31.439Z,15.13
2019-03-28T16:08:07.371Z,10.90
2019-03-28T16:10:41.417Z,19.13
2019-03-28T16:13:14.285Z,30.47
2019-03-28T16:15:49.669Z,25.60
2019-03-28T16:18:26.087Z,50.90
2019-03-28T16:21:00.129Z,15.67
2019-03-28T16:23:33.676Z,42.40
2019-03-28T16:26:06.767Z,49.50
2019-03-28T16:28:40.898Z,29.20
2019-03-28T16:31:13.556Z,22.63
2019-03-28T16:33:46.484Z,33.00
2019-03-28T16:36:41.401Z,143.93
2019-03-28T16:39:16.503Z,173.43
2019-03-28T16:41:51.689Z,174.30
2019-03-28T16:44:28.905Z,114.50
2019-03-28T16:47:05.959Z,60.33
2019-03-28T16:49:41.056Z,53.57
2019-03-28T16:52:14.754Z,119.97
2019-03-28T16:54:49.187Z,66.23
2019-03-28T16:57:22.835Z,56.60
2019-03-28T16:59:57.093Z,51.93
2019-03-28T17:02:30.576Z,59.33
2019-03-28T17:05:05.144Z,49.10
2019-03-28T17:07:40.760Z,28.85
2019-03-28T17:10:23.046Z,15.58
2019-03-28T17:12:57.275Z,69.27
2019-03-28T17:15:30.260Z,72.77
2019-03-28T17:18:03.328Z,89.47
2019-03-28T17:20:42.560Z,100.83
2019-03-28T17:23:17.312Z,60.43
2019-03-28T17:25:51.665Z,67.35
2019-03-28T17:28:25.585Z,168.70
2019-03-28T17:30:58.999Z,47.07
2019-03-28T17:33:34.415Z,41.68
2019-03-28T17:36:07.336Z,96.57
2019-03-28T17:38:41.128Z,78.52
2019-03-28T17:41:14.956Z,91.87
2019-03-28T17:43:48.617Z,53.10
2019-03-28T17:46:21.512Z,89.67
2019-03-28T17:48:59.592Z,87.78
2019-03-28T17:51:35.623Z,40.30
2019-03-28T17:54:09.958Z,50.55
2019-03-28T17:56:43.588Z,97.00
2019-03-28T17:59:17.567Z,108.07
2019-03-28T18:01:54.118Z,36.30
2019-03-28T18:04:28.624Z,108.30
2019-03-28T18:07:06.157Z,92.85
2019-03-28T18:09:39.368Z,122.67
2019-03-28T18:12:16.641Z,83.55
2019-03-28T18:14:51.344Z,126.72
2019-03-28T18:17:25.764Z,67.08
2019-03-28T18:20:00.457Z,23.20
2019-03-28T18:22:33.088Z,17.62
2019-03-28T18:25:07.882Z,20.10
2019-03-28T18:27:41.360Z,19.17
2019-03-28T18:30:19.894Z,10.65
2019-03-28T18:32:54.284Z,12.33
2019-03-28T18:35:34.781Z,14.53
2019-03-28T18:38:08.520Z,12.30
2019-03-28T18:40:44.924Z,38.63
2019-03-28T18:43:20.733Z,8.03
2019-03-28T18:45:54.783Z,6.58
2019-03-28T18:48:36.066Z,32.15
2019-03-28T18:51:05.483Z,39.75
2019-03-28T18:53:39.687Z,20.97
2019-03-28T18:56:13.124Z,19.37
2019-03-28T18:58:48.482Z,8.70
2019-03-28T19:01:22.533Z,15.48
2019-03-28T19:03:55.527Z,20.02
2019-03-28T19:06:29.548Z,126.90
2019-03-28T19:09:02.666Z,185.25
2019-03-28T19:11:40.712Z,18.27
2019-03-28T19:14:13.683Z,12.43
2019-03-28T19:16:48.771Z,35.15
2019-03-28T19:19:23.643Z,74.03
2019-03-28T19:21:57.619Z,101.50
2019-03-28T19:24:32.974Z,33.90
2019-03-28T19:27:08.606Z,16.75
2019-03-28T19:29:43.727Z,14.07
2019-03-28T19:32:22.717Z,22.37
2019-03-28T19:35:02.796Z,15.05
2019-03-28T19:37:35.366Z,10.82
2019-03-28T19:40:09.325Z,10.15
2019-03-28T19:42:44.317Z,8.73
2019-03-28T19:45:20.093Z,11.88
2019-03-28T19:47:54.473Z,14.85
2019-03-28T19:50:31.332Z,10.13
2019-03-28T19:53:04.771Z,8.50
2019-03-28T19:55:40.114Z,11.68
2019-03-28T19:58:13.718Z,15.15
2019-03-28T20:00:48.221Z,11.12
2019-03-28T20:03:23.415Z,9.65
2019-03-28T20:05:56.680Z,7.05
2019-03-28T20:08:30.913Z,11.00
2019-03-28T20:11:06.659Z,7.60
2019-03-28T20:13:39.652Z,12.55
2019-03-28T20:16:16.060Z,8.88
2019-03-28T20:18:49.550Z,10.00
2019-03-28T20:21:24.318Z,10.28
2019-03-28T20:24:00.133Z,11.68
2019-03-28T20:26:35.970Z,8.73
2019-03-28T20:29:11.328Z,8.20
2019-03-28T20:31:44.384Z,8.90
2019-03-28T20:34:17.873Z,9.95
2019-03-28T20:36:53.342Z,8.28
2019-03-28T20:39:27.620Z,14.75
2019-03-28T20:42:01.789Z,12.33
2019-03-28T20:44:36.454Z,12.30
2019-03-28T20:47:09.856Z,9.55
2019-03-28T20:49:42.800Z,9.93
2019-03-28T20:52:19.440Z,11.83
2019-03-28T20:54:55.468Z,8.23
2019-03-28T20:57:30.500Z,12.93
2019-03-28T21:00:08.173Z,12.55
2019-03-28T21:02:42.787Z,12.18
2019-03-28T21:05:16.932Z,12.13
2019-03-28T21:07:50.684Z,17.20
2019-03-28T21:10:33.589Z,12.90
2019-03-28T21:13:09.751Z,30.65
2019-03-28T21:15:43.482Z,15.32
2019-03-28T21:18:21.111Z,12.37
2019-03-28T21:20:54.935Z,10.58
2019-03-28T21:23:28.738Z,12.20
2019-03-28T21:26:02.802Z,9.10
2019-03-28T21:28:46.396Z,11.40
2019-03-28T21:31:10.927Z,12.25
2019-03-28T21:33:44.979Z,11.22
2019-03-28T21:36:29.112Z,15.08
2019-03-28T21:38:54.036Z,12.73
2019-03-28T21:41:28.288Z,10.95
2019-03-28T21:44:02.945Z,8.03
2019-03-28T21:46:36.569Z,7.65
2019-03-28T21:49:13.897Z,11.10
2019-03-28T21:51:48.808Z,10.00
2019-03-28T21:54:22.972Z,7.15
2019-03-28T21:56:57.678Z,12.00
2019-03-28T21:59:31.089Z,10.58
2019-03-28T22:02:06.386Z,11.65
2019-03-28T22:04:41.160Z,16.10
2019-03-28T22:07:14.981Z,16.57
2019-03-28T22:09:52.769Z,14.28
2019-03-28T22:12:26.976Z,11.05
2019-03-28T22:15:10.039Z,14.73
2019-03-28T22:17:45.133Z,12.65
2019-03-28T22:20:20.048Z,10.28
2019-03-28T22:22:55.004Z,9.03
2019-03-28T22:25:28.712Z,10.23
2019-03-28T22:28:01.764Z,48.55
2019-03-28T22:30:37.382Z,12.75
2019-03-28T22:33:11.688Z,7.92
2019-03-28T22:35:48.456Z,7.65
2019-03-28T22:38:21.723Z,10.70
2019-03-28T22:41:13.102Z,7.72
2019-03-28T22:43:46.209Z,7.45
2019-03-28T22:46:20.201Z,9.43
2019-03-28T22:48:53.924Z,10.25
2019-03-28T22:51:45.832Z,9.40
2019-03-28T22:54:19.027Z,8.58
2019-03-28T22:56:52.315Z,9.13
2019-03-28T22:59:26.898Z,10.03
2019-03-28T23:02:02.933Z,8.28
2019-03-28T23:04:39.243Z,8.83
2019-03-28T23:07:12.939Z,7.40
2019-03-28T23:09:45.957Z,7.60
2019-03-28T23:12:21.857Z,9.28
2019-03-28T23:15:05.120Z,7.42
2019-03-28T23:17:42.410Z,8.88
2019-03-28T23:20:15.439Z,8.48
2019-03-28T23:22:48.834Z,11.57
2019-03-28T23:25:25.419Z,12.95
2019-03-28T23:27:58.559Z,11.50
2019-03-28T23:30:32.666Z,10.98
2019-03-28T23:33:05.572Z,8.40
2019-03-28T23:35:40.870Z,9.13
2019-03-28T23:38:15.779Z,8.23
2019-03-28T23:40:49.448Z,10.55
2019-03-28T23:43:21.887Z,12.80
2019-03-28T23:45:55.628Z,10.72
2019-03-28T23:48:31.156Z,12.03
2019-03-28T23:51:04.897Z,17.50
2019-03-28T23:53:38.688Z,12.82
2019-03-28T23:56:13.448Z,13.00
2019-03-28T23:58:47.117Z,11.38
